createdAt,value
2018-05-27T00:00:42.409Z,99.99
2018-05-27T00:01:42.396Z,99.99
2018-05-27T00:02:42.370Z,99.99
2018-05-27T00:03:42.364Z,99.99
2018-05-27T00:04:42.355Z,99.99
2018-05-27T00:05:42.345Z,99.99
2018-05-27T00:06:42.332Z,99.99
2018-05-27T00:07:42.313Z,99.99
2018-05-27T00:08:42.298Z,99.99
2018-05-27T00:09:42.285Z,99.99
2018-05-27T00:10:42.263Z,99.99
2018-05-27T00:11:42.262Z,99.99
2018-05-27T00:12:42.239Z,99.99
2018-05-27T00:13:42.226Z,99.99
2018-05-27T00:14:42.249Z,99.99
2018-05-27T00:15:42.233Z,99.99
2018-05-27T00:16:42.214Z,99.99
2018-05-27T00:17:42.213Z,99.99
2018-05-27T00:18:42.169Z,99.99
2018-05-27T00:19:42.157Z,99.99
2018-05-27T00:20:42.164Z,99.99
2018-05-27T00:21:42.147Z,99.99
2018-05-27T00:22:42.115Z,99.99
2018-05-27T00:23:42.119Z,99.99
2018-05-27T00:24:42.093Z,99.99
2018-05-27T00:25:42.096Z,99.99
2018-05-27T00:26:42.088Z,99.99
2018-05-27T00:27:42.054Z,99.99
2018-05-27T00:28:42.041Z,99.99
2018-05-27T00:29:42.039Z,99.99
2018-05-27T00:30:42.012Z,99.99
2018-05-27T00:31:41.996Z,99.99
2018-05-27T00:32:41.987Z,99.99
2018-05-27T00:33:41.967Z,99.99
2018-05-27T00:34:41.974Z,99.99
2018-05-27T00:35:41.953Z,99.99
2018-05-27T00:36:41.942Z,99.99
2018-05-27T00:37:41.917Z,99.99
2018-05-27T00:38:41.897Z,99.99
2018-05-27T00:39:41.881Z,99.99
2018-05-27T00:40:41.875Z,99.99
2018-05-27T00:41:41.853Z,99.99
2018-05-27T00:42:41.828Z,99.99
2018-05-27T00:43:41.809Z,99.99
2018-05-27T00:44:41.846Z,99.99
2018-05-27T00:45:41.782Z,99.99
2018-05-27T00:46:41.770Z,99.99
2018-05-27T00:47:41.758Z,99.99
2018-05-27T00:48:41.741Z,99.99
2018-05-27T00:49:41.722Z,99.99
2018-05-27T00:50:41.713Z,99.99
2018-05-27T00:51:41.701Z,99.99
2018-05-27T00:52:41.690Z,99.99
2018-05-27T00:53:41.677Z,99.99
2018-05-27T00:54:41.662Z,99.99
2018-05-27T00:55:41.649Z,99.99
2018-05-27T00:56:41.633Z,99.99
2018-05-27T00:57:41.627Z,99.99
2018-05-27T00:58:41.611Z,99.99
2018-05-27T00:59:41.595Z,99.99
2018-05-27T01:00:41.578Z,99.99
2018-05-27T01:01:41.568Z,99.99
2018-05-27T01:02:41.578Z,99.99
2018-05-27T01:03:41.537Z,99.99
2018-05-27T01:04:41.537Z,99.99
2018-05-27T01:05:41.514Z,99.99
2018-05-27T01:06:41.501Z,99.99
2018-05-27T01:07:41.492Z,99.99
2018-05-27T01:08:41.474Z,99.99
2018-05-27T01:09:41.464Z,99.99
2018-05-27T01:10:41.454Z,99.99
2018-05-27T01:11:41.457Z,99.99
2018-05-27T01:12:41.425Z,99.99
2018-05-27T01:13:41.406Z,99.99
2018-05-27T01:14:41.408Z,99.99
2018-05-27T01:15:41.383Z,99.99
2018-05-27T01:16:41.364Z,99.99
2018-05-27T01:17:41.355Z,99.99
2018-05-27T01:18:41.339Z,99.99
2018-05-27T01:19:41.333Z,99.99
2018-05-27T01:20:41.317Z,99.99
2018-05-27T01:21:41.297Z,99.99
2018-05-27T01:22:41.291Z,99.99
2018-05-27T01:23:41.278Z,99.99
2018-05-27T01:24:41.265Z,99.99
2018-05-27T01:25:41.244Z,99.99
2018-05-27T01:26:41.237Z,99.99
2018-05-27T01:27:41.221Z,99.99
2018-05-27T01:28:41.212Z,99.99
2018-05-27T01:29:41.190Z,99.99
2018-05-27T01:30:41.180Z,99.99
2018-05-27T01:31:41.170Z,99.99
2018-05-27T01:32:41.154Z,99.99
2018-05-27T01:33:41.141Z,99.99
2018-05-27T01:34:41.132Z,99.99
2018-05-27T01:35:41.113Z,99.99
2018-05-27T01:36:41.104Z,99.99
2018-05-27T01:37:41.084Z,99.99
2018-05-27T01:38:41.074Z,99.99
2018-05-27T01:39:41.061Z,99.99
2018-05-27T01:40:41.046Z,99.99
2018-05-27T01:41:41.033Z,99.99
2018-05-27T01:42:41.017Z,99.99
2018-05-27T01:43:41.001Z,99.99
2018-05-27T01:44:40.997Z,99.99
2018-05-27T01:45:40.975Z,99.99
2018-05-27T01:46:40.966Z,99.99
2018-05-27T01:47:40.947Z,99.99
2018-05-27T01:48:40.936Z,99.99
2018-05-27T01:49:40.925Z,99.99
2018-05-27T01:50:40.916Z,99.99
2018-05-27T01:51:40.890Z,99.99
2018-05-27T01:52:40.878Z,99.99
2018-05-27T01:53:40.864Z,99.99
2018-05-27T01:54:40.853Z,99.99
2018-05-27T01:55:40.837Z,99.99
2018-05-27T01:56:40.831Z,99.99
2018-05-27T01:57:40.814Z,99.99
2018-05-27T01:58:40.799Z,99.99
2018-05-27T01:59:40.796Z,99.99
2018-05-27T02:00:40.767Z,99.99
2018-05-27T02:01:40.763Z,99.99
2018-05-27T02:02:40.757Z,99.99
2018-05-27T02:03:40.729Z,99.99
2018-05-27T02:04:40.716Z,99.99
2018-05-27T02:05:40.712Z,99.99
2018-05-27T02:06:40.684Z,99.99
2018-05-27T02:07:40.677Z,99.99
2018-05-27T02:08:40.661Z,99.99
2018-05-27T02:09:40.649Z,99.99
2018-05-27T02:10:40.634Z,99.99
2018-05-27T02:11:40.621Z,99.99
2018-05-27T02:12:40.602Z,99.99
2018-05-27T02:13:40.589Z,99.99
2018-05-27T02:14:40.582Z,99.99
2018-05-27T02:15:40.566Z,99.99
2018-05-27T02:16:40.549Z,99.99
2018-05-27T02:17:40.535Z,99.99
2018-05-27T02:18:40.522Z,99.99
2018-05-27T02:19:40.501Z,99.99
2018-05-27T02:20:40.495Z,99.99
2018-05-27T02:21:40.477Z,99.99
2018-05-27T02:22:40.464Z,99.99
2018-05-27T02:23:40.455Z,99.99
2018-05-27T02:24:40.441Z,99.99
2018-05-27T02:25:40.425Z,99.99
2018-05-27T02:26:40.412Z,99.99
2018-05-27T02:27:40.393Z,99.99
2018-05-27T02:28:40.387Z,99.99
2018-05-27T02:29:40.365Z,99.99
2018-05-27T02:30:40.355Z,99.99
2018-05-27T02:31:40.338Z,99.99
2018-05-27T02:32:40.326Z,99.99
2018-05-27T02:33:40.319Z,99.99
2018-05-27T02:34:40.298Z,99.99
2018-05-27T02:35:40.289Z,99.99
2018-05-27T02:36:40.271Z,99.99
2018-05-27T02:37:40.255Z,99.99
2018-05-27T02:38:40.238Z,99.99
2018-05-27T02:39:40.229Z,99.99
2018-05-27T02:40:40.223Z,99.99
2018-05-27T02:41:40.193Z,99.99
2018-05-27T02:42:40.187Z,99.99
2018-05-27T02:43:40.175Z,99.99
2018-05-27T02:44:40.168Z,99.99
2018-05-27T02:45:40.146Z,99.99
2018-05-27T02:46:40.126Z,99.99
2018-05-27T02:47:40.113Z,99.99
2018-05-27T02:48:40.101Z,99.99
2018-05-27T02:49:40.085Z,99.99
2018-05-27T02:50:40.065Z,99.99
2018-05-27T02:51:40.059Z,99.99
2018-05-27T02:52:40.036Z,99.99
2018-05-27T02:53:40.027Z,99.99
2018-05-27T02:54:40.011Z,99.99
2018-05-27T02:55:39.998Z,99.99
2018-05-27T02:56:39.988Z,99.99
2018-05-27T02:57:39.969Z,99.99
2018-05-27T02:58:39.956Z,99.99
2018-05-27T02:59:39.941Z,99.99
2018-05-27T03:00:39.928Z,99.99
2018-05-27T03:01:39.911Z,99.99
2018-05-27T03:02:39.899Z,99.99
2018-05-27T03:03:39.883Z,99.99
2018-05-27T03:04:39.870Z,99.99
2018-05-27T03:05:39.857Z,99.99
2018-05-27T03:06:39.841Z,99.99
2018-05-27T03:07:39.821Z,99.99
2018-05-27T03:08:39.812Z,99.99
2018-05-27T03:09:39.793Z,99.99
2018-05-27T03:10:39.774Z,99.99
2018-05-27T03:11:39.766Z,99.99
2018-05-27T03:12:39.752Z,99.99
2018-05-27T03:13:39.736Z,99.99
2018-05-27T03:14:39.725Z,99.99
2018-05-27T03:15:39.709Z,99.99
2018-05-27T03:16:39.689Z,99.99
2018-05-27T03:17:39.684Z,99.99
2018-05-27T03:18:39.661Z,99.99
2018-05-27T03:19:39.651Z,99.99
2018-05-27T03:20:39.633Z,99.99
2018-05-27T03:21:39.623Z,99.99
2018-05-27T03:22:39.609Z,99.99
2018-05-27T03:23:39.594Z,99.99
2018-05-27T03:24:39.588Z,99.99
2018-05-27T03:25:39.565Z,99.99
2018-05-27T03:26:39.552Z,99.99
2018-05-27T03:27:39.539Z,99.99
2018-05-27T03:28:39.517Z,99.99
2018-05-27T03:29:39.497Z,99.99
2018-05-27T03:30:39.496Z,99.99
2018-05-27T03:31:39.476Z,99.99
2018-05-27T03:32:39.460Z,99.99
2018-05-27T03:33:39.448Z,99.99
2018-05-27T03:34:39.446Z,99.99
2018-05-27T03:35:39.419Z,99.99
2018-05-27T03:36:39.403Z,99.99
2018-05-27T03:37:39.390Z,99.99
2018-05-27T03:38:39.374Z,99.99
2018-05-27T03:39:39.362Z,99.99
2018-05-27T03:40:39.349Z,99.99
2018-05-27T03:41:39.333Z,99.99
2018-05-27T03:42:39.318Z,99.99
2018-05-27T03:43:39.302Z,99.99
2018-05-27T03:44:39.291Z,99.99
2018-05-27T03:45:39.266Z,99.99
2018-05-27T03:46:39.256Z,99.99
2018-05-27T03:47:39.244Z,99.99
2018-05-27T03:48:39.239Z,99.99
2018-05-27T03:49:39.218Z,99.99
2018-05-27T03:50:39.198Z,99.99
2018-05-27T03:51:39.189Z,99.99
2018-05-27T03:52:39.170Z,99.99
2018-05-27T03:53:39.157Z,99.99
2018-05-27T03:54:39.143Z,99.99
2018-05-27T03:55:39.134Z,99.99
2018-05-27T03:56:39.119Z,99.99
2018-05-27T03:57:39.100Z,99.99
2018-05-27T03:58:39.084Z,99.99
2018-05-27T03:59:39.071Z,99.99
2018-05-27T04:00:39.056Z,99.99
2018-05-27T04:01:39.039Z,99.99
2018-05-27T04:02:39.020Z,99.99
2018-05-27T04:03:39.020Z,99.99
2018-05-27T04:04:39.002Z,99.99
2018-05-27T04:05:38.985Z,99.99
2018-05-27T04:06:38.972Z,99.99
2018-05-27T04:07:38.966Z,99.99
2018-05-27T04:08:38.989Z,99.99
2018-05-27T04:09:38.934Z,99.99
2018-05-27T04:10:38.922Z,99.99
2018-05-27T04:11:38.909Z,99.99
2018-05-27T04:12:38.886Z,99.99
2018-05-27T04:13:38.872Z,99.99
2018-05-27T04:14:38.860Z,99.99
2018-05-27T04:15:38.848Z,99.99
2018-05-27T04:16:38.829Z,99.99
2018-05-27T04:17:38.819Z,99.99
2018-05-27T04:18:38.812Z,99.99
2018-05-27T04:19:38.797Z,99.99
2018-05-27T04:20:38.781Z,99.99
2018-05-27T04:21:38.772Z,99.99
2018-05-27T04:22:38.749Z,99.99
2018-05-27T04:23:38.739Z,99.99
2018-05-27T04:24:38.723Z,99.99
2018-05-27T04:25:38.712Z,99.99
2018-05-27T04:26:38.702Z,99.99
2018-05-27T04:27:38.685Z,99.99
2018-05-27T04:28:38.686Z,99.99
2018-05-27T04:29:38.654Z,99.99
2018-05-27T04:30:38.644Z,99.99
2018-05-27T04:31:38.634Z,99.99
2018-05-27T04:32:38.621Z,99.99
2018-05-27T04:33:38.606Z,99.99
2018-05-27T04:34:38.592Z,99.99
2018-05-27T04:35:38.576Z,99.99
2018-05-27T04:36:38.572Z,99.99
2018-05-27T04:37:38.555Z,99.99
2018-05-27T04:38:38.544Z,99.99
2018-05-27T04:39:38.529Z,99.99
2018-05-27T04:40:38.516Z,99.99
2018-05-27T04:41:38.505Z,99.99
2018-05-27T04:42:38.490Z,99.99
2018-05-27T04:43:38.471Z,99.99
2018-05-27T04:44:38.465Z,99.99
2018-05-27T04:45:38.451Z,99.99
2018-05-27T04:46:38.434Z,99.99
2018-05-27T04:47:38.421Z,99.99
2018-05-27T04:48:38.415Z,99.99
2018-05-27T04:49:38.399Z,99.99
2018-05-27T04:50:38.383Z,99.99
2018-05-27T04:51:38.374Z,99.99
2018-05-27T04:52:38.361Z,99.99
2018-05-27T04:53:38.351Z,99.99
2018-05-27T04:54:38.332Z,99.99
2018-05-27T04:55:38.384Z,99.99
2018-05-27T04:56:38.403Z,99.99
2018-05-27T04:57:38.329Z,99.99
2018-05-27T04:58:38.303Z,99.99
2018-05-27T04:59:38.306Z,99.99
2018-05-27T05:00:38.291Z,99.99
2018-05-27T05:01:38.247Z,99.99
2018-05-27T05:02:38.262Z,99.99
2018-05-27T05:03:38.243Z,99.99
2018-05-27T05:04:38.227Z,99.99
2018-05-27T05:05:38.228Z,99.99
2018-05-27T05:06:38.209Z,99.99
2018-05-27T05:07:38.196Z,99.99
2018-05-27T05:08:38.173Z,99.99
2018-05-27T05:09:38.170Z,99.99
2018-05-27T05:10:38.167Z,99.99
2018-05-27T05:11:38.148Z,99.99
2018-05-27T05:12:38.138Z,99.99
2018-05-27T05:13:38.132Z,99.99
2018-05-27T05:14:38.113Z,99.99
2018-05-27T05:15:38.102Z,99.99
2018-05-27T05:16:38.102Z,99.99
2018-05-27T05:17:38.087Z,99.99
2018-05-27T05:18:38.061Z,99.99
2018-05-27T05:19:38.061Z,99.99
2018-05-27T05:20:38.048Z,99.99
2018-05-27T05:21:38.024Z,99.99
2018-05-27T05:22:37.993Z,99.99
2018-05-27T05:23:37.987Z,99.99
2018-05-27T05:24:37.968Z,99.99
2018-05-27T05:25:37.955Z,99.99
2018-05-27T05:26:37.936Z,99.99
2018-05-27T05:27:37.986Z,99.99
2018-05-27T05:28:37.923Z,99.99
2018-05-27T05:29:37.911Z,99.99
2018-05-27T05:30:37.901Z,99.99
2018-05-27T05:31:37.885Z,99.99
2018-05-27T05:32:37.872Z,99.99
2018-05-27T05:33:37.863Z,99.99
2018-05-27T05:34:37.845Z,99.99
2018-05-27T05:35:37.839Z,99.99
2018-05-27T05:36:37.829Z,99.99
2018-05-27T05:37:37.813Z,99.99
2018-05-27T05:38:37.813Z,99.99
2018-05-27T05:39:37.791Z,99.99
2018-05-27T05:40:37.781Z,99.99
2018-05-27T05:41:37.768Z,99.99
2018-05-27T05:42:37.758Z,99.99
2018-05-27T05:43:37.771Z,99.99
2018-05-27T05:44:37.735Z,99.99
2018-05-27T05:45:37.723Z,99.99
2018-05-27T05:46:37.714Z,99.99
2018-05-27T05:47:37.701Z,99.99
2018-05-27T05:48:37.688Z,99.99
2018-05-27T05:49:37.681Z,99.99
2018-05-27T05:50:37.676Z,99.99
2018-05-27T05:51:37.657Z,99.99
2018-05-27T05:52:37.646Z,99.99
2018-05-27T05:53:37.625Z,99.99
2018-05-27T05:54:37.621Z,99.99
2018-05-27T05:55:37.608Z,99.99
2018-05-27T05:56:37.599Z,99.99
2018-05-27T05:57:37.595Z,99.99
2018-05-27T05:58:37.579Z,99.99
2018-05-27T05:59:37.567Z,99.99
2018-05-27T06:00:37.557Z,99.99
2018-05-27T06:01:37.538Z,99.99
2018-05-27T06:02:37.535Z,99.99
2018-05-27T06:03:37.525Z,99.99
2018-05-27T06:04:37.509Z,99.99
2018-05-27T06:05:37.500Z,99.99
2018-05-27T06:06:37.488Z,99.99
2018-05-27T06:07:37.478Z,99.99
2018-05-27T06:08:37.469Z,99.99
2018-05-27T06:09:37.448Z,99.99
2018-05-27T06:10:37.446Z,99.99
2018-05-27T06:11:37.436Z,99.99
2018-05-27T06:12:37.422Z,99.99
2018-05-27T06:13:37.411Z,99.99
2018-05-27T06:14:37.397Z,99.99
2018-05-27T06:15:37.388Z,99.99
2018-05-27T06:16:37.378Z,99.99
2018-05-27T06:17:37.368Z,99.99
2018-05-27T06:18:37.355Z,99.99
2018-05-27T06:19:37.357Z,99.99
2018-05-27T06:20:37.337Z,99.99
2018-05-27T06:21:37.334Z,99.99
2018-05-27T06:22:37.314Z,99.99
2018-05-27T06:23:37.311Z,99.99
2018-05-27T06:24:37.292Z,99.99
2018-05-27T06:25:37.278Z,99.99
2018-05-27T06:26:37.273Z,99.99
2018-05-27T06:27:37.267Z,99.99
2018-05-27T06:28:37.252Z,99.99
2018-05-27T06:29:37.239Z,99.99
2018-05-27T06:30:37.230Z,99.99
2018-05-27T06:31:37.221Z,99.99
2018-05-27T06:32:37.215Z,99.99
2018-05-27T06:33:37.195Z,99.99
2018-05-27T06:34:37.192Z,99.99
2018-05-27T06:35:37.184Z,99.99
2018-05-27T06:36:37.170Z,99.99
2018-05-27T06:37:37.160Z,99.99
2018-05-27T06:38:37.150Z,99.99
2018-05-27T06:39:37.145Z,99.99
2018-05-27T06:40:37.131Z,99.99
2018-05-27T06:41:37.118Z,99.99
2018-05-27T06:42:37.118Z,99.99
2018-05-27T06:43:37.105Z,99.99
2018-05-27T06:44:37.094Z,99.99
2018-05-27T06:45:37.088Z,99.99
2018-05-27T06:46:37.077Z,99.99
2018-05-27T06:47:37.067Z,99.99
2018-05-27T06:48:37.058Z,99.99
2018-05-27T06:49:37.050Z,99.99
2018-05-27T06:50:37.040Z,95.79
2018-05-27T06:51:37.031Z,97.24
2018-05-27T06:52:37.021Z,94.87
2018-05-27T06:53:37.011Z,91.11
2018-05-27T06:54:37.001Z,90.91
2018-05-27T06:55:36.998Z,91.78
2018-05-27T06:56:36.988Z,91.59
2018-05-27T06:57:36.979Z,93.90
2018-05-27T06:58:36.970Z,93.66
2018-05-27T06:59:36.966Z,92.02
2018-05-27T07:00:36.954Z,89.03
2018-05-27T07:01:36.941Z,86.27
2018-05-27T07:02:36.937Z,87.81
2018-05-27T07:03:36.928Z,87.95
2018-05-27T07:04:36.953Z,84.19
2018-05-27T07:05:36.912Z,86.11
2018-05-27T07:06:36.896Z,85.93
2018-05-27T07:07:36.895Z,84.38
2018-05-27T07:08:36.886Z,86.41
2018-05-27T07:09:36.877Z,82.87
2018-05-27T07:10:36.873Z,84.22
2018-05-27T07:11:36.911Z,84.90
2018-05-27T07:12:36.854Z,81.90
2018-05-27T07:13:36.845Z,80.65
2018-05-27T07:14:36.842Z,83.06
2018-05-27T07:15:36.842Z,83.06
2018-05-27T07:16:36.832Z,82.00
2018-05-27T07:17:36.819Z,82.68
2018-05-27T07:18:36.816Z,84.46
2018-05-27T07:19:36.807Z,83.88
2018-05-27T07:20:36.800Z,79.62
2018-05-27T07:21:36.790Z,79.33
2018-05-27T07:22:36.787Z,81.30
2018-05-27T07:23:36.793Z,80.15
2018-05-27T07:24:36.778Z,79.76
2018-05-27T07:25:36.755Z,79.37
2018-05-27T07:26:36.758Z,83.73
2018-05-27T07:27:36.755Z,79.08
2018-05-27T07:28:36.746Z,79.17
2018-05-27T07:29:36.742Z,78.50
2018-05-27T07:30:36.748Z,79.99
2018-05-27T07:31:36.730Z,80.38
2018-05-27T07:32:36.720Z,82.12
2018-05-27T07:33:36.720Z,84.06
2018-05-27T07:34:36.820Z,80.34
2018-05-27T07:35:36.713Z,82.66
2018-05-27T07:36:36.700Z,80.63
2018-05-27T07:37:36.697Z,80.63
2018-05-27T07:38:36.694Z,85.36
2018-05-27T07:39:36.685Z,76.54
2018-05-27T07:40:36.707Z,77.45
2018-05-27T07:41:36.685Z,75.20
2018-05-27T07:42:36.675Z,75.08
2018-05-27T07:43:36.662Z,70.26
2018-05-27T07:44:36.671Z,72.24
2018-05-27T07:45:36.659Z,71.20
2018-05-27T07:46:36.681Z,70.26
2018-05-27T07:47:36.654Z,67.77
2018-05-27T07:48:36.645Z,67.67
2018-05-27T07:49:36.638Z,72.12
2018-05-27T07:50:36.637Z,70.11
2018-05-27T07:51:36.630Z,68.00
2018-05-27T07:52:36.680Z,66.50
2018-05-27T07:53:36.624Z,63.78
2018-05-27T07:54:36.624Z,65.17
2018-05-27T07:55:36.625Z,66.79
2018-05-27T07:56:36.617Z,71.72
2018-05-27T07:57:36.617Z,70.51
2018-05-27T07:58:36.635Z,72.61
2018-05-27T07:59:36.608Z,72.00
2018-05-27T08:00:36.608Z,72.23
2018-05-27T08:01:36.614Z,71.42
2018-05-27T08:02:36.595Z,72.11
2018-05-27T08:03:36.593Z,70.42
2018-05-27T08:04:36.638Z,71.45
2018-05-27T08:05:36.588Z,70.45
2018-05-27T08:06:36.589Z,71.96
2018-05-27T08:07:36.579Z,72.06
2018-05-27T08:08:36.579Z,73.65
2018-05-27T08:09:36.576Z,71.84
2018-05-27T08:10:36.570Z,76.05
2018-05-27T08:11:36.567Z,72.07
2018-05-27T08:12:36.567Z,69.06
2018-05-27T08:13:36.561Z,68.51
2018-05-27T08:14:36.556Z,68.87
2018-05-27T08:15:36.551Z,69.54
2018-05-27T08:16:36.544Z,69.35
2018-05-27T08:17:36.545Z,69.84
2018-05-27T08:18:36.544Z,72.49
2018-05-27T08:19:36.541Z,72.14
2018-05-27T08:20:36.535Z,71.33
2018-05-27T08:21:36.538Z,71.66
2018-05-27T08:22:36.533Z,72.14
2018-05-27T08:23:36.522Z,71.03
2018-05-27T08:24:36.525Z,69.19
2018-05-27T08:25:36.522Z,69.09
2018-05-27T08:26:36.516Z,68.70
2018-05-27T08:27:36.521Z,70.06
2018-05-27T08:28:36.506Z,69.29
2018-05-27T08:29:36.503Z,69.19
2018-05-27T08:30:36.500Z,72.11
2018-05-27T08:31:36.494Z,71.91
2018-05-27T08:32:36.494Z,70.75
2018-05-27T08:33:36.500Z,73.66
2018-05-27T08:34:36.526Z,73.75
2018-05-27T08:35:36.506Z,71.72
2018-05-27T08:36:36.481Z,73.89
2018-05-27T08:37:36.501Z,69.74
2018-05-27T08:38:36.474Z,68.64
2018-05-27T08:39:36.474Z,69.20
2018-05-27T08:40:36.468Z,70.95
2018-05-27T08:41:36.469Z,68.55
2018-05-27T08:42:36.468Z,68.77
2018-05-27T08:43:36.461Z,64.23
2018-05-27T08:44:36.468Z,65.11
2018-05-27T08:45:36.449Z,64.94
2018-05-27T08:46:36.453Z,65.07
2018-05-27T08:47:36.455Z,66.60
2018-05-27T08:48:36.443Z,65.36
2018-05-27T08:49:36.443Z,65.59
2018-05-27T08:50:36.442Z,66.21
2018-05-27T08:51:36.439Z,64.65
2018-05-27T08:52:36.436Z,62.44
2018-05-27T08:53:36.439Z,62.50
2018-05-27T08:54:36.427Z,63.41
2018-05-27T08:55:36.423Z,60.29
2018-05-27T08:56:36.421Z,60.29
2018-05-27T08:57:36.423Z,59.87
2018-05-27T08:58:36.424Z,60.55
2018-05-27T08:59:36.417Z,61.98
2018-05-27T09:00:36.415Z,58.73
2018-05-27T09:01:36.410Z,60.19
2018-05-27T09:02:36.413Z,60.16
2018-05-27T09:03:36.443Z,60.26
2018-05-27T09:04:36.404Z,62.15
2018-05-27T09:05:36.401Z,61.66
2018-05-27T09:06:36.406Z,66.05
2018-05-27T09:07:36.400Z,66.76
2018-05-27T09:08:36.395Z,62.31
2018-05-27T09:09:36.406Z,58.83
2018-05-27T09:10:36.392Z,64.03
2018-05-27T09:11:36.405Z,59.31
2018-05-27T09:12:36.388Z,62.47
2018-05-27T09:13:36.402Z,64.17
2018-05-27T09:14:36.385Z,65.07
2018-05-27T09:15:36.385Z,66.05
2018-05-27T09:16:36.388Z,62.57
2018-05-27T09:17:36.385Z,63.67
2018-05-27T09:18:36.378Z,65.26
2018-05-27T09:19:36.395Z,60.61
2018-05-27T09:20:36.382Z,58.92
2018-05-27T09:21:36.382Z,62.73
2018-05-27T09:22:36.369Z,63.15
2018-05-27T09:23:36.376Z,62.15
2018-05-27T09:24:36.372Z,66.31
2018-05-27T09:25:36.366Z,59.87
2018-05-27T09:26:36.364Z,58.12
2018-05-27T09:27:36.370Z,60.19
2018-05-27T09:28:36.360Z,58.02
2018-05-27T09:29:36.369Z,64.68
2018-05-27T09:30:36.374Z,59.02
2018-05-27T09:31:36.361Z,58.17
2018-05-27T09:32:36.359Z,59.25
2018-05-27T09:33:36.347Z,58.53
2018-05-27T09:34:36.347Z,58.86
2018-05-27T09:35:36.357Z,58.76
2018-05-27T09:36:36.351Z,59.31
2018-05-27T09:37:36.350Z,56.87
2018-05-27T09:38:36.344Z,59.22
2018-05-27T09:39:36.359Z,64.42
2018-05-27T09:40:36.344Z,61.30
2018-05-27T09:41:36.334Z,58.37
2018-05-27T09:42:36.334Z,60.13
2018-05-27T09:43:36.340Z,55.34
2018-05-27T09:44:36.341Z,58.47
2018-05-27T09:45:36.331Z,61.91
2018-05-27T09:46:36.331Z,60.94
2018-05-27T09:47:36.354Z,60.49
2018-05-27T09:48:36.331Z,58.34
2018-05-27T09:49:36.330Z,59.12
2018-05-27T09:50:36.328Z,61.27
2018-05-27T09:51:36.327Z,59.35
2018-05-27T09:52:36.337Z,58.84
2018-05-27T09:53:36.325Z,62.66
2018-05-27T09:54:36.331Z,63.28
2018-05-27T09:55:36.325Z,62.50
2018-05-27T09:56:36.325Z,66.99
2018-05-27T09:57:36.325Z,59.90
2018-05-27T09:58:36.325Z,60.22
2018-05-27T09:59:36.329Z,57.26
2018-05-27T10:00:36.325Z,59.87
2018-05-27T10:01:36.334Z,60.65
2018-05-27T10:02:36.315Z,58.18
2018-05-27T10:03:36.321Z,58.22
2018-05-27T10:04:36.315Z,61.33
2018-05-27T10:05:36.315Z,61.46
2018-05-27T10:06:36.312Z,57.91
2018-05-27T10:07:36.318Z,60.35
2018-05-27T10:08:36.314Z,56.93
2018-05-27T10:09:36.311Z,57.03
2018-05-27T10:10:36.315Z,57.03
2018-05-27T10:11:36.312Z,57.00
2018-05-27T10:12:36.322Z,56.77
2018-05-27T10:13:36.311Z,59.97
2018-05-27T10:14:36.311Z,61.17
2018-05-27T10:15:36.313Z,58.24
2018-05-27T10:16:36.310Z,56.10
2018-05-27T10:17:36.305Z,58.14
2018-05-27T10:18:36.309Z,56.71
2018-05-27T10:19:36.309Z,53.58
2018-05-27T10:20:36.310Z,53.58
2018-05-27T10:21:36.376Z,55.90
2018-05-27T10:22:36.305Z,58.66
2018-05-27T10:23:36.315Z,58.20
2018-05-27T10:24:36.309Z,54.49
2018-05-27T10:25:36.304Z,54.20
2018-05-27T10:26:36.316Z,54.59
2018-05-27T10:27:36.312Z,56.05
2018-05-27T10:28:36.316Z,54.88
2018-05-27T10:29:36.315Z,52.15
2018-05-27T10:30:36.312Z,55.37
2018-05-27T10:31:36.309Z,53.13
2018-05-27T10:32:36.315Z,52.95
2018-05-27T10:33:36.338Z,50.42
2018-05-27T10:34:36.315Z,51.20
2018-05-27T10:35:36.322Z,50.71
2018-05-27T10:36:36.326Z,48.55
2018-05-27T10:37:36.328Z,51.03
2018-05-27T10:38:36.331Z,48.99
2018-05-27T10:39:36.354Z,54.38
2018-05-27T10:40:36.338Z,47.36
2018-05-27T10:41:36.342Z,51.07
2018-05-27T10:42:36.341Z,46.84
2018-05-27T10:43:36.376Z,47.14
2018-05-27T10:44:36.348Z,49.11
2018-05-27T10:45:36.350Z,49.33
2018-05-27T10:46:36.365Z,51.10
2018-05-27T10:47:36.354Z,50.81
2018-05-27T10:48:36.364Z,47.94
2018-05-27T10:49:36.377Z,47.43
2018-05-27T10:50:36.367Z,47.89
2018-05-27T10:51:36.409Z,47.85
2018-05-27T10:52:36.380Z,50.46
2018-05-27T10:53:36.382Z,50.43
2018-05-27T10:54:36.383Z,50.88
2018-05-27T10:55:36.385Z,49.71
2018-05-27T10:56:36.392Z,52.27
2018-05-27T10:57:36.389Z,52.88
2018-05-27T10:58:36.399Z,54.57
2018-05-27T10:59:36.402Z,55.21
2018-05-27T11:00:36.403Z,49.21
2018-05-27T11:01:36.410Z,50.56
2018-05-27T11:02:36.412Z,47.92
2018-05-27T11:03:36.412Z,50.27
2018-05-27T11:04:36.418Z,48.31
2018-05-27T11:05:36.432Z,48.04
2018-05-27T11:06:36.431Z,45.72
2018-05-27T11:07:36.434Z,51.29
2018-05-27T11:08:36.440Z,50.49
2018-05-27T11:09:36.441Z,50.78
2018-05-27T11:10:36.450Z,53.72
2018-05-27T11:11:36.453Z,49.82
2018-05-27T11:12:36.468Z,48.11
2018-05-27T11:13:36.462Z,48.33
2018-05-27T11:14:36.468Z,49.63
2018-05-27T11:15:36.474Z,54.79
2018-05-27T11:16:36.481Z,51.25
2018-05-27T11:17:36.485Z,50.17
2018-05-27T11:18:36.494Z,50.15
2018-05-27T11:19:36.494Z,51.90
2018-05-27T11:20:36.500Z,50.22
2018-05-27T11:21:36.504Z,53.78
2018-05-27T11:22:36.515Z,53.49
2018-05-27T11:23:36.534Z,55.12
2018-05-27T11:24:36.558Z,57.88
2018-05-27T11:25:36.517Z,61.25
2018-05-27T11:26:36.526Z,57.70
2018-05-27T11:27:36.523Z,53.69
2018-05-27T11:28:36.526Z,54.89
2018-05-27T11:29:36.526Z,51.07
2018-05-27T11:30:36.538Z,50.59
2018-05-27T11:31:36.538Z,53.45
2018-05-27T11:32:36.548Z,50.17
2018-05-27T11:33:36.549Z,52.55
2018-05-27T11:34:36.549Z,53.03
2018-05-27T11:35:36.589Z,55.85
2018-05-27T11:36:36.561Z,51.51
2018-05-27T11:37:36.596Z,52.50
2018-05-27T11:38:36.583Z,56.15
2018-05-27T11:39:36.583Z,54.58
2018-05-27T11:40:36.590Z,50.68
2018-05-27T11:41:36.596Z,51.59
2018-05-27T11:42:36.604Z,46.95
2018-05-27T11:43:36.621Z,51.20
2018-05-27T11:44:36.609Z,51.78
2018-05-27T11:45:36.615Z,53.46
2018-05-27T11:46:36.623Z,54.93
2018-05-27T11:47:36.631Z,55.51
2018-05-27T11:48:36.683Z,56.65
2018-05-27T11:49:36.637Z,57.79
2018-05-27T11:50:36.648Z,57.70
2018-05-27T11:51:36.653Z,59.52
2018-05-27T11:52:36.658Z,59.03
2018-05-27T11:53:36.660Z,62.86
2018-05-27T11:54:36.660Z,61.30
2018-05-27T11:55:36.663Z,58.67
2018-05-27T11:56:36.663Z,57.99
2018-05-27T11:57:36.667Z,58.87
2018-05-27T11:58:36.666Z,59.62
2018-05-27T11:59:36.669Z,63.32
2018-05-27T12:00:36.671Z,63.02
2018-05-27T12:01:36.670Z,63.90
2018-05-27T12:02:36.711Z,63.06
2018-05-27T12:03:36.673Z,62.93
2018-05-27T12:04:36.670Z,65.50
2018-05-27T12:05:36.669Z,61.01
2018-05-27T12:06:36.669Z,59.44
2018-05-27T12:07:36.685Z,62.85
2018-05-27T12:08:36.681Z,59.98
2018-05-27T12:09:36.830Z,60.55
2018-05-27T12:10:36.676Z,57.77
2018-05-27T12:11:36.990Z,54.70
2018-05-27T12:12:36.682Z,54.75
2018-05-27T12:13:36.683Z,52.76
2018-05-27T12:14:36.689Z,56.60
2018-05-27T12:15:36.687Z,56.37
2018-05-27T12:16:36.682Z,56.61
2018-05-27T12:17:36.692Z,60.39
2018-05-27T12:18:36.704Z,59.48
2018-05-27T12:19:36.703Z,58.02
2018-05-27T12:20:36.702Z,60.26
2018-05-27T12:21:36.703Z,60.46
2018-05-27T12:22:36.704Z,60.06
2018-05-27T12:23:36.707Z,62.44
2018-05-27T12:24:36.708Z,58.34
2018-05-27T12:25:36.708Z,61.91
2018-05-27T12:26:36.706Z,57.48
2018-05-27T12:27:36.707Z,57.04
2018-05-27T12:28:36.708Z,54.85
2018-05-27T12:29:36.726Z,54.58
2018-05-27T12:30:36.714Z,55.10
2018-05-27T12:31:36.717Z,50.59
2018-05-27T12:32:36.724Z,52.30
2018-05-27T12:33:36.727Z,50.76
2018-05-27T12:34:36.737Z,47.10
2018-05-27T12:35:36.734Z,48.08
2018-05-27T12:36:36.740Z,50.73
2018-05-27T12:37:36.794Z,53.94
2018-05-27T12:38:36.753Z,52.74
2018-05-27T12:39:36.765Z,56.47
2018-05-27T12:40:36.765Z,54.68
2018-05-27T12:41:36.787Z,49.80
2018-05-27T12:42:36.785Z,47.39
2018-05-27T12:43:36.788Z,49.58
2018-05-27T12:44:36.788Z,49.29
2018-05-27T12:45:36.801Z,51.25
2018-05-27T12:46:36.807Z,52.31
2018-05-27T12:47:36.804Z,51.03
2018-05-27T12:48:36.816Z,50.83
2018-05-27T12:49:36.830Z,50.76
2018-05-27T12:50:36.833Z,51.07
2018-05-27T12:51:36.832Z,46.35
2018-05-27T12:52:36.843Z,46.65